sensor_id;sensor_type;location;lat;lon;timestamp;temperature;humidity
17687;DHT22;8962;52.538;13.266;2022-12-10T00:01:25;-0.80;99.90
17687;DHT22;8962;52.538;13.266;2022-12-10T00:03:53;-0.80;99.90
17687;DHT22;8962;52.538;13.266;2022-12-10T00:06:24;-0.90;99.90
17687;DHT22;8962;52.538;13.266;2022-12-10T00:08:53;-1.00;99.90
17687;DHT22;8962;52.538;13.266;2022-12-10T00:11:22;-0.90;99.90
17687;DHT22;8962;52.538;13.266;2022-12-10T00:13:50;-0.90;99.90
17687;DHT22;8962;52.538;13.266;2022-12-10T00:16:20;-0.90;99.90
17687;DHT22;8962;52.538;13.266;2022-12-10T00:18:50;-1.00;99.90
17687;DHT22;8962;52.538;13.266;2022-12-10T00:21:22;-0.90;99.90
17687;DHT22;8962;52.538;13.266;2022-12-10T00:23:49;-1.00;99.90
17687;DHT22;8962;52.538;13.266;2022-12-10T00:26:18;-1.00;99.90
17687;DHT22;8962;52.538;13.266;2022-12-10T00:28:45;-1.00;99.90
17687;DHT22;8962;52.538;13.266;2022-12-10T00:31:17;-1.00;99.90
17687;DHT22;8962;52.538;13.266;2022-12-10T00:33:45;-1.00;99.90
17687;DHT22;8962;52.538;13.266;2022-12-10T00:36:16;-1.00;99.90
17687;DHT22;8962;52.538;13.266;2022-12-10T00:38:43;-1.00;99.90
17687;DHT22;8962;52.538;13.266;2022-12-10T00:41:13;-1.00;99.90
17687;DHT22;8962;52.538;13.266;2022-12-10T00:43:42;-1.00;99.90
17687;DHT22;8962;52.538;13.266;2022-12-10T00:46:12;-1.10;99.90
17687;DHT22;8962;52.538;13.266;2022-12-10T00:48:40;-1.00;99.90
17687;DHT22;8962;52.538;13.266;2022-12-10T00:51:08;-1.00;99.90
17687;DHT22;8962;52.538;13.266;2022-12-10T00:53:43;-1.00;99.90
17687;DHT22;8962;52.538;13.266;2022-12-10T00:56:13;-1.00;99.90
17687;DHT22;8962;52.538;13.266;2022-12-10T00:58:41;-1.00;99.90
17687;DHT22;8962;52.538;13.266;2022-12-10T01:01:13;-1.00;99.90
17687;DHT22;8962;52.538;13.266;2022-12-10T01:03:42;-0.90;99.90
17687;DHT22;8962;52.538;13.266;2022-12-10T01:06:13;-0.90;99.90
17687;DHT22;8962;52.538;13.266;2022-12-10T01:08:50;-1.00;99.90
17687;DHT22;8962;52.538;13.266;2022-12-10T01:11:19;-1.10;99.90
17687;DHT22;8962;52.538;13.266;2022-12-10T01:13:51;-1.10;99.90
17687;DHT22;8962;52.538;13.266;2022-12-10T01:16:21;-1.10;99.90
17687;DHT22;8962;52.538;13.266;2022-12-10T01:18:52;-1.20;99.90
17687;DHT22;8962;52.538;13.266;2022-12-10T01:21:20;-1.20;99.90
17687;DHT22;8962;52.538;13.266;2022-12-10T01:23:50;-1.20;99.90
17687;DHT22;8962;52.538;13.266;2022-12-10T01:26:20;-1.20;99.90
17687;DHT22;8962;52.538;13.266;2022-12-10T01:28:49;-1.20;99.90
17687;DHT22;8962;52.538;13.266;2022-12-10T01:31:19;-1.30;99.90
17687;DHT22;8962;52.538;13.266;2022-12-10T01:33:47;-1.30;99.90
17687;DHT22;8962;52.538;13.266;2022-12-10T01:36:16;-1.30;99.90
17687;DHT22;8962;52.538;13.266;2022-12-10T01:38:44;-1.30;99.90
17687;DHT22;8962;52.538;13.266;2022-12-10T01:41:17;-1.40;99.90
17687;DHT22;8962;52.538;13.266;2022-12-10T01:43:54;-1.40;99.90
17687;DHT22;8962;52.538;13.266;2022-12-10T01:46:22;-1.50;99.90
17687;DHT22;8962;52.538;13.266;2022-12-10T01:48:50;-1.40;99.90
17687;DHT22;8962;52.538;13.266;2022-12-10T01:51:19;-1.50;99.90
17687;DHT22;8962;52.538;13.266;2022-12-10T01:53:47;-1.50;99.90
17687;DHT22;8962;52.538;13.266;2022-12-10T01:56:18;-1.50;99.90
17687;DHT22;8962;52.538;13.266;2022-12-10T01:58:47;-1.60;99.90
17687;DHT22;8962;52.538;13.266;2022-12-10T02:01:22;-1.60;99.90
17687;DHT22;8962;52.538;13.266;2022-12-10T02:04:00;-1.60;99.90
17687;DHT22;8962;52.538;13.266;2022-12-10T02:06:41;-1.70;99.90
17687;DHT22;8962;52.538;13.266;2022-12-10T02:09:20;-1.60;99.90
17687;DHT22;8962;52.538;13.266;2022-12-10T02:11:58;-1.90;99.90
17687;DHT22;8962;52.538;13.266;2022-12-10T02:14:32;-1.80;99.90
17687;DHT22;8962;52.538;13.266;2022-12-10T02:17:06;-1.80;99.90
17687;DHT22;8962;52.538;13.266;2022-12-10T02:19:52;-1.80;99.90
17687;DHT22;8962;52.538;13.266;2022-12-10T02:22:23;-1.70;99.90
17687;DHT22;8962;52.538;13.266;2022-12-10T02:24:52;-1.80;99.90
17687;DHT22;8962;52.538;13.266;2022-12-10T02:27:26;-1.80;99.90
17687;DHT22;8962;52.538;13.266;2022-12-10T02:29:58;-1.90;99.90
17687;DHT22;8962;52.538;13.266;2022-12-10T02:32:33;-1.90;99.90
17687;DHT22;8962;52.538;13.266;2022-12-10T02:35:05;-2.00;99.90
17687;DHT22;8962;52.538;13.266;2022-12-10T02:37:36;-2.00;99.90
17687;DHT22;8962;52.538;13.266;2022-12-10T02:40:08;-2.00;99.90
17687;DHT22;8962;52.538;13.266;2022-12-10T02:42:43;-2.00;99.90
17687;DHT22;8962;52.538;13.266;2022-12-10T02:45:13;-2.00;99.90
17687;DHT22;8962;52.538;13.266;2022-12-10T02:47:43;-2.00;99.90
17687;DHT22;8962;52.538;13.266;2022-12-10T02:50:15;-2.00;99.90
17687;DHT22;8962;52.538;13.266;2022-12-10T02:52:43;-2.00;99.90
17687;DHT22;8962;52.538;13.266;2022-12-10T02:55:12;-1.90;99.90
17687;DHT22;8962;52.538;13.266;2022-12-10T02:57:52;-1.90;99.90
17687;DHT22;8962;52.538;13.266;2022-12-10T03:00:24;-1.90;99.90
17687;DHT22;8962;52.538;13.266;2022-12-10T03:03:08;-1.70;99.90
17687;DHT22;8962;52.538;13.266;2022-12-10T03:05:44;-1.80;99.90
17687;DHT22;8962;52.538;13.266;2022-12-10T03:08:18;-1.80;99.90
17687;DHT22;8962;52.538;13.266;2022-12-10T03:10:52;-1.80;99.90
17687;DHT22;8962;52.538;13.266;2022-12-10T03:13:26;-1.70;99.90
17687;DHT22;8962;52.538;13.266;2022-12-10T03:15:58;-1.80;99.90
17687;DHT22;8962;52.538;13.266;2022-12-10T03:18:26;-1.80;99.90
17687;DHT22;8962;52.538;13.266;2022-12-10T03:20:58;-1.80;99.90
17687;DHT22;8962;52.538;13.266;2022-12-10T03:23:28;-1.70;99.90
17687;DHT22;8962;52.538;13.266;2022-12-10T03:25:56;-1.70;99.90
17687;DHT22;8962;52.538;13.266;2022-12-10T03:28:24;-1.70;99.90
17687;DHT22;8962;52.538;13.266;2022-12-10T03:30:55;-1.60;99.90
17687;DHT22;8962;52.538;13.266;2022-12-10T03:33:23;-1.60;99.90
17687;DHT22;8962;52.538;13.266;2022-12-10T03:35:53;-1.50;99.90
17687;DHT22;8962;52.538;13.266;2022-12-10T03:38:20;-1.50;99.90
17687;DHT22;8962;52.538;13.266;2022-12-10T03:40:47;-1.60;99.90
17687;DHT22;8962;52.538;13.266;2022-12-10T03:43:15;-1.50;99.90
17687;DHT22;8962;52.538;13.266;2022-12-10T03:45:47;-1.50;99.90
17687;DHT22;8962;52.538;13.266;2022-12-10T03:48:16;-1.60;99.90
17687;DHT22;8962;52.538;13.266;2022-12-10T03:50:43;-1.50;99.90
17687;DHT22;8962;52.538;13.266;2022-12-10T03:53:10;-1.50;99.90
17687;DHT22;8962;52.538;13.266;2022-12-10T03:55:38;-1.50;99.90
17687;DHT22;8962;52.538;13.266;2022-12-10T03:58:06;-1.40;99.90
17687;DHT22;8962;52.538;13.266;2022-12-10T04:00:33;-1.40;99.90
17687;DHT22;8962;52.538;13.266;2022-12-10T04:03:00;-1.50;99.90
17687;DHT22;8962;52.538;13.266;2022-12-10T04:05:29;-1.40;99.90
17687;DHT22;8962;52.538;13.266;2022-12-10T04:07:58;-1.30;99.90
17687;DHT22;8962;52.538;13.266;2022-12-10T04:10:25;-1.30;99.90
17687;DHT22;8962;52.538;13.266;2022-12-10T04:12:53;-1.30;99.90
17687;DHT22;8962;52.538;13.266;2022-12-10T04:15:38;-1.30;99.90
17687;DHT22;8962;52.538;13.266;2022-12-10T04:18:23;-1.20;99.90
17687;DHT22;8962;52.538;13.266;2022-12-10T04:20:53;-1.20;99.90
17687;DHT22;8962;52.538;13.266;2022-12-10T04:23:38;-1.10;99.90
17687;DHT22;8962;52.538;13.266;2022-12-10T04:26:22;-1.10;99.90
17687;DHT22;8962;52.538;13.266;2022-12-10T04:29:09;-1.00;99.90
17687;DHT22;8962;52.538;13.266;2022-12-10T04:31:36;-1.00;99.90
17687;DHT22;8962;52.538;13.266;2022-12-10T04:34:03;-0.90;99.90
17687;DHT22;8962;52.538;13.266;2022-12-10T04:36:32;-0.80;99.90
17687;DHT22;8962;52.538;13.266;2022-12-10T04:39:01;-0.80;99.90
17687;DHT22;8962;52.538;13.266;2022-12-10T04:41:28;-0.80;99.90
17687;DHT22;8962;52.538;13.266;2022-12-10T04:43:55;-0.80;99.90
17687;DHT22;8962;52.538;13.266;2022-12-10T04:46:22;-0.80;99.90
17687;DHT22;8962;52.538;13.266;2022-12-10T04:48:50;-0.70;99.90
17687;DHT22;8962;52.538;13.266;2022-12-10T04:51:20;-0.70;99.90
17687;DHT22;8962;52.538;13.266;2022-12-10T04:53:49;-0.70;99.90
17687;DHT22;8962;52.538;13.266;2022-12-10T04:56:16;-0.70;99.90
17687;DHT22;8962;52.538;13.266;2022-12-10T04:58:43;-0.60;99.90
17687;DHT22;8962;52.538;13.266;2022-12-10T05:01:11;-0.60;99.90
17687;DHT22;8962;52.538;13.266;2022-12-10T05:03:39;-0.60;99.90
17687;DHT22;8962;52.538;13.266;2022-12-10T05:06:08;-0.50;99.90
17687;DHT22;8962;52.538;13.266;2022-12-10T05:08:37;-0.50;99.90
17687;DHT22;8962;52.538;13.266;2022-12-10T05:11:10;-0.40;99.90
17687;DHT22;8962;52.538;13.266;2022-12-10T05:13:38;-0.40;99.90
17687;DHT22;8962;52.538;13.266;2022-12-10T05:16:08;-0.40;99.90
17687;DHT22;8962;52.538;13.266;2022-12-10T05:18:36;-0.30;99.90
17687;DHT22;8962;52.538;13.266;2022-12-10T05:21:05;-0.40;99.90
17687;DHT22;8962;52.538;13.266;2022-12-10T05:23:36;-0.30;99.90
17687;DHT22;8962;52.538;13.266;2022-12-10T05:26:04;-0.30;99.90
17687;DHT22;8962;52.538;13.266;2022-12-10T05:28:35;-0.40;99.90
17687;DHT22;8962;52.538;13.266;2022-12-10T05:31:10;-0.30;99.90
17687;DHT22;8962;52.538;13.266;2022-12-10T05:33:39;-0.40;99.90
17687;DHT22;8962;52.538;13.266;2022-12-10T05:36:10;-0.40;99.90
17687;DHT22;8962;52.538;13.266;2022-12-10T05:38:39;-0.40;99.90
17687;DHT22;8962;52.538;13.266;2022-12-10T05:41:09;-0.30;99.90
17687;DHT22;8962;52.538;13.266;2022-12-10T05:43:39;-0.40;99.90
17687;DHT22;8962;52.538;13.266;2022-12-10T05:46:11;-0.30;99.90
17687;DHT22;8962;52.538;13.266;2022-12-10T05:48:39;-0.40;99.90
17687;DHT22;8962;52.538;13.266;2022-12-10T05:51:08;-0.40;99.90
17687;DHT22;8962;52.538;13.266;2022-12-10T05:53:36;-0.40;99.90
17687;DHT22;8962;52.538;13.266;2022-12-10T05:56:06;-0.40;99.90
17687;DHT22;8962;52.538;13.266;2022-12-10T05:58:34;-0.40;99.90
17687;DHT22;8962;52.538;13.266;2022-12-10T06:01:07;-0.40;99.90
17687;DHT22;8962;52.538;13.266;2022-12-10T06:03:37;-0.40;99.90
17687;DHT22;8962;52.538;13.266;2022-12-10T06:06:07;-0.40;99.90
17687;DHT22;8962;52.538;13.266;2022-12-10T06:08:34;-0.50;99.90
17687;DHT22;8962;52.538;13.266;2022-12-10T06:11:03;-0.50;99.90
17687;DHT22;8962;52.538;13.266;2022-12-10T06:13:30;-0.50;99.90
17687;DHT22;8962;52.538;13.266;2022-12-10T06:15:58;-0.50;99.90
17687;DHT22;8962;52.538;13.266;2022-12-10T06:18:27;-0.50;99.90
17687;DHT22;8962;52.538;13.266;2022-12-10T06:20:54;-0.50;99.90
17687;DHT22;8962;52.538;13.266;2022-12-10T06:23:21;-0.60;99.90
17687;DHT22;8962;52.538;13.266;2022-12-10T06:25:47;-0.50;99.90
17687;DHT22;8962;52.538;13.266;2022-12-10T06:28:15;-0.50;99.90
17687;DHT22;8962;52.538;13.266;2022-12-10T06:30:42;-0.50;99.90
17687;DHT22;8962;52.538;13.266;2022-12-10T06:33:11;-0.50;99.90
17687;DHT22;8962;52.538;13.266;2022-12-10T06:35:40;-0.40;99.90
17687;DHT22;8962;52.538;13.266;2022-12-10T06:38:06;-0.50;99.90
17687;DHT22;8962;52.538;13.266;2022-12-10T06:40:34;-0.40;99.90
17687;DHT22;8962;52.538;13.266;2022-12-10T06:43:01;-0.50;99.90
17687;DHT22;8962;52.538;13.266;2022-12-10T06:45:28;-0.50;99.90
17687;DHT22;8962;52.538;13.266;2022-12-10T06:47:55;-0.50;99.90
17687;DHT22;8962;52.538;13.266;2022-12-10T06:50:23;-0.60;99.90
17687;DHT22;8962;52.538;13.266;2022-12-10T06:52:51;-0.70;99.90
17687;DHT22;8962;52.538;13.266;2022-12-10T06:55:19;-0.70;99.90
17687;DHT22;8962;52.538;13.266;2022-12-10T06:57:47;-0.60;99.90
17687;DHT22;8962;52.538;13.266;2022-12-10T07:00:17;-0.60;99.90
17687;DHT22;8962;52.538;13.266;2022-12-10T07:02:44;-0.70;99.90
17687;DHT22;8962;52.538;13.266;2022-12-10T07:05:13;-0.70;99.90
17687;DHT22;8962;52.538;13.266;2022-12-10T07:07:43;-0.70;99.90
17687;DHT22;8962;52.538;13.266;2022-12-10T07:10:13;-0.60;99.90
17687;DHT22;8962;52.538;13.266;2022-12-10T07:12:41;-0.70;99.90
17687;DHT22;8962;52.538;13.266;2022-12-10T07:15:09;-0.70;99.90
17687;DHT22;8962;52.538;13.266;2022-12-10T07:17:43;-0.60;99.90
17687;DHT22;8962;52.538;13.266;2022-12-10T07:20:11;-0.50;99.90
17687;DHT22;8962;52.538;13.266;2022-12-10T07:22:38;-0.50;99.90
17687;DHT22;8962;52.538;13.266;2022-12-10T07:25:06;-0.60;99.90
17687;DHT22;8962;52.538;13.266;2022-12-10T07:27:34;-0.60;99.90
17687;DHT22;8962;52.538;13.266;2022-12-10T07:30:03;-0.60;99.90
17687;DHT22;8962;52.538;13.266;2022-12-10T07:32:31;-0.60;99.90
17687;DHT22;8962;52.538;13.266;2022-12-10T07:34:58;-0.50;99.90
17687;DHT22;8962;52.538;13.266;2022-12-10T07:37:28;-0.40;99.90
17687;DHT22;8962;52.538;13.266;2022-12-10T07:39:57;-0.40;99.90
17687;DHT22;8962;52.538;13.266;2022-12-10T07:42:27;-0.50;99.90
17687;DHT22;8962;52.538;13.266;2022-12-10T07:44:58;-0.60;99.90
17687;DHT22;8962;52.538;13.266;2022-12-10T07:47:26;-0.40;99.90
17687;DHT22;8962;52.538;13.266;2022-12-10T07:49:53;-0.40;99.90
17687;DHT22;8962;52.538;13.266;2022-12-10T07:52:20;-0.40;99.90
17687;DHT22;8962;52.538;13.266;2022-12-10T07:54:47;-0.40;99.90
17687;DHT22;8962;52.538;13.266;2022-12-10T07:57:14;-0.40;99.90
17687;DHT22;8962;52.538;13.266;2022-12-10T07:59:42;-0.50;99.90
17687;DHT22;8962;52.538;13.266;2022-12-10T08:02:10;-0.50;99.90
17687;DHT22;8962;52.538;13.266;2022-12-10T08:04:40;-0.40;99.90
17687;DHT22;8962;52.538;13.266;2022-12-10T08:07:07;-0.40;99.90
17687;DHT22;8962;52.538;13.266;2022-12-10T08:09:34;-0.40;99.90
17687;DHT22;8962;52.538;13.266;2022-12-10T08:12:01;-0.50;99.90
17687;DHT22;8962;52.538;13.266;2022-12-10T08:14:30;-0.50;99.90
17687;DHT22;8962;52.538;13.266;2022-12-10T08:16:58;-0.50;99.90
17687;DHT22;8962;52.538;13.266;2022-12-10T08:19:26;-0.50;99.90
17687;DHT22;8962;52.538;13.266;2022-12-10T08:21:53;-0.40;99.90
17687;DHT22;8962;52.538;13.266;2022-12-10T08:24:23;-0.40;99.90
17687;DHT22;8962;52.538;13.266;2022-12-10T08:26:51;-0.30;99.90
17687;DHT22;8962;52.538;13.266;2022-12-10T08:29:19;-0.30;99.90
17687;DHT22;8962;52.538;13.266;2022-12-10T08:31:47;-0.20;99.90
17687;DHT22;8962;52.538;13.266;2022-12-10T08:34:16;-0.10;99.90
17687;DHT22;8962;52.538;13.266;2022-12-10T08:36:46;-0.20;99.90
17687;DHT22;8962;52.538;13.266;2022-12-10T08:39:13;-0.40;99.90
17687;DHT22;8962;52.538;13.266;2022-12-10T08:41:42;-0.40;99.90
17687;DHT22;8962;52.538;13.266;2022-12-10T08:44:10;-0.40;99.90
17687;DHT22;8962;52.538;13.266;2022-12-10T08:46:37;-0.30;99.90
17687;DHT22;8962;52.538;13.266;2022-12-10T08:49:05;-0.20;99.90
17687;DHT22;8962;52.538;13.266;2022-12-10T08:51:33;-0.20;99.90
17687;DHT22;8962;52.538;13.266;2022-12-10T08:54:03;-0.10;99.90
17687;DHT22;8962;52.538;13.266;2022-12-10T08:56:30;-0.10;99.90
17687;DHT22;8962;52.538;13.266;2022-12-10T08:58:57;-0.10;99.90
17687;DHT22;8962;52.538;13.266;2022-12-10T09:01:24;-0.10;99.90
17687;DHT22;8962;52.538;13.266;2022-12-10T09:03:51;0.00;99.90
17687;DHT22;8962;52.538;13.266;2022-12-10T09:06:22;0.00;99.90
17687;DHT22;8962;52.538;13.266;2022-12-10T09:08:51;-0.20;99.90
17687;DHT22;8962;52.538;13.266;2022-12-10T09:11:22;-0.10;99.90
17687;DHT22;8962;52.538;13.266;2022-12-10T09:13:49;0.00;99.90
17687;DHT22;8962;52.538;13.266;2022-12-10T09:16:16;0.10;99.90
17687;DHT22;8962;52.538;13.266;2022-12-10T09:18:44;0.00;99.90
17687;DHT22;8962;52.538;13.266;2022-12-10T09:21:13;-0.10;99.90
17687;DHT22;8962;52.538;13.266;2022-12-10T09:23:41;0.00;99.90
17687;DHT22;8962;52.538;13.266;2022-12-10T09:26:10;0.30;99.90
17687;DHT22;8962;52.538;13.266;2022-12-10T09:28:40;0.40;99.90
17687;DHT22;8962;52.538;13.266;2022-12-10T09:31:10;0.40;99.90
17687;DHT22;8962;52.538;13.266;2022-12-10T09:33:41;0.40;99.90
17687;DHT22;8962;52.538;13.266;2022-12-10T09:36:10;0.50;99.90
17687;DHT22;8962;52.538;13.266;2022-12-10T09:38:40;0.60;99.90
17687;DHT22;8962;52.538;13.266;2022-12-10T09:41:37;0.70;99.90
17687;DHT22;8962;52.538;13.266;2022-12-10T09:44:20;0.70;99.90
17687;DHT22;8962;52.538;13.266;2022-12-10T09:46:52;0.60;99.90
17687;DHT22;8962;52.538;13.266;2022-12-10T09:49:27;0.60;99.90
17687;DHT22;8962;52.538;13.266;2022-12-10T09:52:00;0.40;99.90
17687;DHT22;8962;52.538;13.266;2022-12-10T09:54:31;0.50;99.90
17687;DHT22;8962;52.538;13.266;2022-12-10T09:57:00;0.60;99.90
17687;DHT22;8962;52.538;13.266;2022-12-10T09:59:31;0.60;99.90
17687;DHT22;8962;52.538;13.266;2022-12-10T10:02:10;0.50;99.90
17687;DHT22;8962;52.538;13.266;2022-12-10T10:04:40;0.40;99.90
17687;DHT22;8962;52.538;13.266;2022-12-10T10:07:12;0.50;99.90
17687;DHT22;8962;52.538;13.266;2022-12-10T10:09:46;0.50;99.90
17687;DHT22;8962;52.538;13.266;2022-12-10T10:12:14;0.50;99.90
17687;DHT22;8962;52.538;13.266;2022-12-10T10:14:44;0.40;99.90
17687;DHT22;8962;52.538;13.266;2022-12-10T10:17:16;0.40;99.90
17687;DHT22;8962;52.538;13.266;2022-12-10T10:19:47;0.70;99.90
17687;DHT22;8962;52.538;13.266;2022-12-10T10:22:15;0.60;99.90
17687;DHT22;8962;52.538;13.266;2022-12-10T10:24:45;0.70;99.90
17687;DHT22;8962;52.538;13.266;2022-12-10T10:27:15;0.80;99.90
17687;DHT22;8962;52.538;13.266;2022-12-10T10:29:46;0.70;99.90
17687;DHT22;8962;52.538;13.266;2022-12-10T10:32:17;0.70;99.90
17687;DHT22;8962;52.538;13.266;2022-12-10T10:34:46;0.60;99.90
17687;DHT22;8962;52.538;13.266;2022-12-10T10:37:19;0.70;99.90
17687;DHT22;8962;52.538;13.266;2022-12-10T10:39:48;0.90;99.90
17687;DHT22;8962;52.538;13.266;2022-12-10T10:42:33;0.70;99.90
17687;DHT22;8962;52.538;13.266;2022-12-10T10:45:37;0.80;99.90
17687;DHT22;8962;52.538;13.266;2022-12-10T10:48:09;0.90;99.90
17687;DHT22;8962;52.538;13.266;2022-12-10T10:50:40;1.10;99.90
17687;DHT22;8962;52.538;13.266;2022-12-10T10:53:27;1.00;99.90
17687;DHT22;8962;52.538;13.266;2022-12-10T10:55:59;0.90;99.90
17687;DHT22;8962;52.538;13.266;2022-12-10T10:58:31;0.90;99.90
17687;DHT22;8962;52.538;13.266;2022-12-10T11:01:03;0.80;99.90
17687;DHT22;8962;52.538;13.266;2022-12-10T11:03:33;0.90;99.90
17687;DHT22;8962;52.538;13.266;2022-12-10T11:06:05;1.00;99.90
17687;DHT22;8962;52.538;13.266;2022-12-10T11:08:35;1.10;99.90
17687;DHT22;8962;52.538;13.266;2022-12-10T11:11:05;1.10;99.90
17687;DHT22;8962;52.538;13.266;2022-12-10T11:13:35;1.20;99.90
17687;DHT22;8962;52.538;13.266;2022-12-10T11:16:18;0.90;99.90
17687;DHT22;8962;52.538;13.266;2022-12-10T11:18:55;0.80;99.90
17687;DHT22;8962;52.538;13.266;2022-12-10T11:21:24;1.00;99.90
17687;DHT22;8962;52.538;13.266;2022-12-10T11:23:53;1.10;99.90
17687;DHT22;8962;52.538;13.266;2022-12-10T11:26:50;1.10;99.90
17687;DHT22;8962;52.538;13.266;2022-12-10T11:29:41;0.90;99.90
17687;DHT22;8962;52.538;13.266;2022-12-10T11:32:25;1.10;99.90
17687;DHT22;8962;52.538;13.266;2022-12-10T11:35:05;1.00;99.90
17687;DHT22;8962;52.538;13.266;2022-12-10T11:37:42;1.00;99.90
17687;DHT22;8962;52.538;13.266;2022-12-10T11:40:30;1.00;99.90
17687;DHT22;8962;52.538;13.266;2022-12-10T11:43:05;1.00;99.90
17687;DHT22;8962;52.538;13.266;2022-12-10T11:45:45;0.90;99.90
17687;DHT22;8962;52.538;13.266;2022-12-10T11:48:27;0.90;99.90
17687;DHT22;8962;52.538;13.266;2022-12-10T11:51:01;1.10;99.90
17687;DHT22;8962;52.538;13.266;2022-12-10T11:56:34;1.00;99.90
17687;DHT22;8962;52.538;13.266;2022-12-10T11:59:11;0.90;99.90
17687;DHT22;8962;52.538;13.266;2022-12-10T12:01:51;1.00;99.90
17687;DHT22;8962;52.538;13.266;2022-12-10T12:04:30;1.00;99.90
17687;DHT22;8962;52.538;13.266;2022-12-10T12:07:08;0.90;99.90
17687;DHT22;8962;52.538;13.266;2022-12-10T12:09:51;0.90;99.90
17687;DHT22;8962;52.538;13.266;2022-12-10T12:12:33;0.90;99.90
17687;DHT22;8962;52.538;13.266;2022-12-10T12:15:08;1.10;99.90
17687;DHT22;8962;52.538;13.266;2022-12-10T12:17:43;1.00;99.90
17687;DHT22;8962;52.538;13.266;2022-12-10T12:20:17;0.90;99.90
17687;DHT22;8962;52.538;13.266;2022-12-10T12:22:50;0.70;99.90
17687;DHT22;8962;52.538;13.266;2022-12-10T12:25:23;0.70;99.90
17687;DHT22;8962;52.538;13.266;2022-12-10T12:27:57;0.60;99.90
17687;DHT22;8962;52.538;13.266;2022-12-10T12:30:27;0.50;99.90
17687;DHT22;8962;52.538;13.266;2022-12-10T12:32:57;0.60;99.90
17687;DHT22;8962;52.538;13.266;2022-12-10T12:35:35;0.50;99.90
17687;DHT22;8962;52.538;13.266;2022-12-10T12:38:10;0.50;99.90
17687;DHT22;8962;52.538;13.266;2022-12-10T12:40:49;0.60;99.90
17687;DHT22;8962;52.538;13.266;2022-12-10T12:43:24;0.70;99.90
17687;DHT22;8962;52.538;13.266;2022-12-10T12:45:55;0.70;99.90
17687;DHT22;8962;52.538;13.266;2022-12-10T12:48:29;0.80;99.90
17687;DHT22;8962;52.538;13.266;2022-12-10T12:51:03;0.70;99.90
17687;DHT22;8962;52.538;13.266;2022-12-10T12:53:34;0.70;99.90
17687;DHT22;8962;52.538;13.266;2022-12-10T12:56:05;0.60;99.90
17687;DHT22;8962;52.538;13.266;2022-12-10T12:58:42;0.60;99.90
17687;DHT22;8962;52.538;13.266;2022-12-10T13:01:21;0.50;99.90
17687;DHT22;8962;52.538;13.266;2022-12-10T13:03:53;0.60;99.90
17687;DHT22;8962;52.538;13.266;2022-12-10T13:06:25;0.40;99.90
17687;DHT22;8962;52.538;13.266;2022-12-10T13:08:57;0.40;99.90
17687;DHT22;8962;52.538;13.266;2022-12-10T13:11:31;0.30;99.90
17687;DHT22;8962;52.538;13.266;2022-12-10T13:14:15;0.40;99.90
17687;DHT22;8962;52.538;13.266;2022-12-10T13:16:49;0.50;99.90
17687;DHT22;8962;52.538;13.266;2022-12-10T13:19:29;0.50;99.90
17687;DHT22;8962;52.538;13.266;2022-12-10T13:22:02;0.40;99.90
17687;DHT22;8962;52.538;13.266;2022-12-10T13:24:59;0.50;99.90
17687;DHT22;8962;52.538;13.266;2022-12-10T13:27:31;0.50;99.90
17687;DHT22;8962;52.538;13.266;2022-12-10T13:30:01;0.40;99.90
17687;DHT22;8962;52.538;13.266;2022-12-10T13:32:45;0.40;99.90
17687;DHT22;8962;52.538;13.266;2022-12-10T13:35:26;0.50;99.90
17687;DHT22;8962;52.538;13.266;2022-12-10T13:37:57;0.50;99.90
17687;DHT22;8962;52.538;13.266;2022-12-10T13:40:27;0.50;99.90
17687;DHT22;8962;52.538;13.266;2022-12-10T13:43:26;0.40;99.90
17687;DHT22;8962;52.538;13.266;2022-12-10T13:46:25;0.40;99.90
17687;DHT22;8962;52.538;13.266;2022-12-10T13:48:53;0.40;99.90
17687;DHT22;8962;52.538;13.266;2022-12-10T13:51:36;0.40;99.90
17687;DHT22;8962;52.538;13.266;2022-12-10T13:54:19;0.40;99.90
17687;DHT22;8962;52.538;13.266;2022-12-10T13:56:55;0.30;99.90
17687;DHT22;8962;52.538;13.266;2022-12-10T13:59:32;0.20;99.90
17687;DHT22;8962;52.538;13.266;2022-12-10T14:02:22;0.20;99.90
17687;DHT22;8962;52.538;13.266;2022-12-10T14:05:08;0.20;99.90
17687;DHT22;8962;52.538;13.266;2022-12-10T14:07:44;0.00;99.90
17687;DHT22;8962;52.538;13.266;2022-12-10T14:10:16;0.00;99.90
17687;DHT22;8962;52.538;13.266;2022-12-10T14:12:45;0.00;99.90
17687;DHT22;8962;52.538;13.266;2022-12-10T14:15:17;0.00;99.90
17687;DHT22;8962;52.538;13.266;2022-12-10T14:17:50;0.00;99.90
17687;DHT22;8962;52.538;13.266;2022-12-10T14:20:20;0.10;99.90
17687;DHT22;8962;52.538;13.266;2022-12-10T14:22:50;0.00;99.90
17687;DHT22;8962;52.538;13.266;2022-12-10T14:25:20;0.00;99.90
17687;DHT22;8962;52.538;13.266;2022-12-10T14:27:48;-0.10;99.90
17687;DHT22;8962;52.538;13.266;2022-12-10T14:30:19;0.00;99.90
17687;DHT22;8962;52.538;13.266;2022-12-10T14:32:47;0.00;99.90
17687;DHT22;8962;52.538;13.266;2022-12-10T14:35:16;-0.10;99.90
17687;DHT22;8962;52.538;13.266;2022-12-10T14:37:48;-0.10;99.90
17687;DHT22;8962;52.538;13.266;2022-12-10T14:40:21;-0.10;99.90
17687;DHT22;8962;52.538;13.266;2022-12-10T14:42:50;-0.10;99.90
17687;DHT22;8962;52.538;13.266;2022-12-10T14:45:17;-0.20;99.90
17687;DHT22;8962;52.538;13.266;2022-12-10T14:47:45;-0.10;99.90
17687;DHT22;8962;52.538;13.266;2022-12-10T14:50:16;-0.10;99.90
17687;DHT22;8962;52.538;13.266;2022-12-10T14:52:51;-0.10;99.90
17687;DHT22;8962;52.538;13.266;2022-12-10T14:55:21;0.00;99.90
17687;DHT22;8962;52.538;13.266;2022-12-10T14:57:53;0.00;99.90
17687;DHT22;8962;52.538;13.266;2022-12-10T15:00:22;0.10;99.90
17687;DHT22;8962;52.538;13.266;2022-12-10T15:02:53;0.00;99.90
17687;DHT22;8962;52.538;13.266;2022-12-10T15:05:26;0.00;99.90
17687;DHT22;8962;52.538;13.266;2022-12-10T15:07:56;0.00;99.90
17687;DHT22;8962;52.538;13.266;2022-12-10T15:10:27;0.00;99.90
17687;DHT22;8962;52.538;13.266;2022-12-10T15:12:56;-0.10;99.90
17687;DHT22;8962;52.538;13.266;2022-12-10T15:15:28;0.00;99.90
17687;DHT22;8962;52.538;13.266;2022-12-10T15:17:59;0.00;99.90
17687;DHT22;8962;52.538;13.266;2022-12-10T15:20:30;0.00;99.90
17687;DHT22;8962;52.538;13.266;2022-12-10T15:23:11;0.10;99.90
17687;DHT22;8962;52.538;13.266;2022-12-10T15:25:45;0.10;99.90
17687;DHT22;8962;52.538;13.266;2022-12-10T15:28:25;0.00;99.90
17687;DHT22;8962;52.538;13.266;2022-12-10T15:30:55;0.00;99.90
17687;DHT22;8962;52.538;13.266;2022-12-10T15:33:31;0.00;99.90
17687;DHT22;8962;52.538;13.266;2022-12-10T15:36:00;0.00;99.90
17687;DHT22;8962;52.538;13.266;2022-12-10T15:38:29;0.00;99.90
17687;DHT22;8962;52.538;13.266;2022-12-10T15:40:59;0.00;99.90
17687;DHT22;8962;52.538;13.266;2022-12-10T15:43:28;0.00;99.90
17687;DHT22;8962;52.538;13.266;2022-12-10T15:45:58;0.00;99.90
17687;DHT22;8962;52.538;13.266;2022-12-10T15:48:28;0.10;99.90
17687;DHT22;8962;52.538;13.266;2022-12-10T15:50:56;0.10;99.90
17687;DHT22;8962;52.538;13.266;2022-12-10T15:53:27;0.00;99.90
17687;DHT22;8962;52.538;13.266;2022-12-10T15:55:54;0.00;99.90
17687;DHT22;8962;52.538;13.266;2022-12-10T15:58:23;0.00;99.90
17687;DHT22;8962;52.538;13.266;2022-12-10T16:03:37;-0.10;99.90
17687;DHT22;8962;52.538;13.266;2022-12-10T16:06:06;-0.10;99.90
17687;DHT22;8962;52.538;13.266;2022-12-10T16:08:35;-0.10;99.90
17687;DHT22;8962;52.538;13.266;2022-12-10T16:11:10;-0.10;99.90